Hovedside
METAR-TAF:

METAR-TAF

Lufthavner :

Karup lufthavn

Karup, Danmark

breddegrad: 56-18N, lengdegrad: 009-07E, høyde over havet: 52 m

Gjeldene værobservasjon

Denne rapporten ble laget for 32 minutter siden, klokken 23:20 UTC
Vind 3 kt fra Øst-nordøst
Temperatur 0°C
Luftfuktighet 86%
Trykk 1029 hPa
Sikt 10 km eller mer

METAR: EKKA 132320Z AUTO 06003KT 9999NDV SCT049/// M00/M02 Q1029

Tid: 00:52 (23:52 UTC)

Varsel

Denne rapporten ble laget for 36 minutter siden, klokken 23:16 UTC
Varsel gyldig fra 14. klokken 00 UTC til 14. klokken 24 UTC
Vind 8 kt fra Øst-nordøst
Sikt 10 km eller mer
Brutte skyer i en høyde av 5000 ft
Midlertidig
fra 14. klokken 00 UTC til 14. klokken 24 UTC
Sikt: 5000 m
Brutte skyer i en høyde av 800 ft
Brutte skyer i en høyde av 1200 ft, Tårnskyer (cumulus).
lette snøbyger, regn

TAF: EKKA 132316Z 1400/1424 07008KT 9999 BKN050 TEMPO 1400/1424 5000 -SHSNRA BKN008 BKN012TCU

Værobservasjoner og værvarsel for over 4000 flyplasser (METAR- og TAF-rapporter).

Tilgjengelige stasjoner er representert av de røde og gule prikkene på kartet.

Hold musepekeren over prikken for å se navnet på stasjonen.

Klikk så for å se værobservasjoner og -varsler.

For å forandre kartet kan du klikke på den grønne knappen med svart kryss for å zoome inn, på den grønne knappen med strek for å zoome ut, eller på de grønne pilene for å se tilstøtende kart.


METAR-TAF: